Time;durP1;ratioP1;P1;durP2;ratioP2;P2;SDS_P1;SDS_P2;PMS_P1;PMS_P2;Temp;Humidity;BMP_temperature;BMP_pressure;BME280_temperature;BME280_humidity;BME280_pressure;Samples;Min_cycle;Max_cycle;Signal;HPM_P1;HPM_P2
2020/12/10 00:02:13;;;;;;;4.95;3.72;;;10.60;66.50;;;;;;5102787;28;20072;-66
2020/12/10 00:04:39;;;;;;;5.47;3.42;;;10.60;66.40;;;;;;5102774;28;20327;-67
2020/12/10 00:07:06;;;;;;;3.80;3.35;;;10.60;66.50;;;;;;5102741;28;20023;-67
2020/12/10 00:09:32;;;;;;;4.95;3.58;;;10.60;66.50;;;;;;5102524;28;20068;-66
2020/12/10 00:12:03;;;;;;;5.32;3.70;;;10.60;67.10;;;;;;5102623;28;20141;-66
2020/12/10 00:14:30;;;;;;;5.53;3.97;;;10.60;66.60;;;;;;5102694;28;20061;-67
2020/12/10 00:16:56;;;;;;;4.22;3.47;;;10.60;66.50;;;;;;5102546;28;20012;-66
2020/12/10 00:19:22;;;;;;;5.35;3.95;;;10.60;66.50;;;;;;5102564;28;20080;-66
2020/12/10 00:21:48;;;;;;;3.90;3.03;;;10.60;66.50;;;;;;5102508;28;20538;-66
2020/12/10 00:24:13;;;;;;;5.78;3.50;;;10.60;66.60;;;;;;5102469;28;20028;-66
2020/12/10 00:26:39;;;;;;;5.40;3.75;;;10.60;66.50;;;;;;5102475;28;20061;-67
2020/12/10 00:29:05;;;;;;;4.85;3.28;;;10.60;66.60;;;;;;5101213;28;20060;-67
2020/12/10 00:31:31;;;;;;;4.90;4.05;;;10.60;66.50;;;;;;5102346;28;20020;-67
2020/12/10 00:33:57;;;;;;;5.57;3.72;;;10.60;66.50;;;;;;5102050;28;20012;-66
2020/12/10 00:36:23;;;;;;;3.90;3.03;;;10.60;66.50;;;;;;5101691;28;20052;-64
2020/12/10 00:38:49;;;;;;;4.80;3.80;;;10.60;66.60;;;;;;5102352;28;20338;-66
2020/12/10 00:41:15;;;;;;;3.97;3.58;;;10.60;66.60;;;;;;5102229;28;20061;-65
2020/12/10 00:43:42;;;;;;;4.80;3.20;;;10.60;66.60;;;;;;5102260;28;20024;-66
2020/12/10 00:46:08;;;;;;;5.45;4.38;;;10.60;66.60;;;;;;5102151;28;20430;-66
2020/12/10 00:48:34;;;;;;;4.65;3.63;;;10.60;66.70;;;;;;5102178;28;20028;-66
2020/12/10 00:51:01;;;;;;;4.95;3.60;;;10.60;66.70;;;;;;5102179;28;20339;-67
2020/12/10 00:53:28;;;;;;;4.00;3.33;;;10.60;66.50;;;;;;5102079;28;20237;-68
2020/12/10 00:55:55;;;;;;;5.82;3.45;;;10.60;66.60;;;;;;5102078;28;20024;-66
2020/12/10 00:58:21;;;;;;;4.45;3.65;;;10.60;66.70;;;;;;5102096;28;20016;-66
2020/12/10 01:00:46;;;;;;;4.07;3.13;;;10.60;66.70;;;;;;5100862;28;20031;-66
2020/12/10 01:03:12;;;;;;;4.75;3.72;;;10.60;66.70;;;;;;5102036;28;20028;-65
2020/12/10 01:05:38;;;;;;;4.35;3.55;;;10.60;66.70;;;;;;5102065;28;20027;-67
2020/12/10 01:08:04;;;;;;;4.47;3.40;;;10.60;66.50;;;;;;5101972;28;20073;-68
2020/12/10 01:10:29;;;;;;;3.92;3.22;;;10.60;66.60;;;;;;5101858;28;20115;-66
2020/12/10 01:12:55;;;;;;;4.93;3.47;;;10.70;66.70;;;;;;5101862;28;20020;-66
2020/12/10 01:15:21;;;;;;;5.38;3.95;;;10.60;66.60;;;;;;5101895;28;20042;-65
2020/12/10 01:17:47;;;;;;;5.38;3.80;;;10.60;66.70;;;;;;5101923;28;20027;-67
2020/12/10 01:20:12;;;;;;;4.82;3.88;;;10.60;66.70;;;;;;5101891;28;20020;-66
2020/12/10 01:22:38;;;;;;;5.07;3.65;;;10.60;66.70;;;;;;5101878;28;20037;-66
2020/12/10 01:25:05;;;;;;;4.75;3.83;;;10.60;66.60;;;;;;5101811;28;20065;-67
2020/12/10 01:27:31;;;;;;;4.78;3.75;;;10.60;66.40;;;;;;5101817;28;20016;-67
2020/12/10 01:29:57;;;;;;;5.72;3.55;;;10.70;66.40;;;;;;5101826;28;20016;-66
2020/12/10 01:32:26;;;;;;;4.10;3.30;;;10.60;67.20;;;;;;5101642;28;20518;-66
2020/12/10 01:34:52;;;;;;;4.63;3.47;;;10.60;66.40;;;;;;5101741;28;20020;-66
2020/12/10 01:37:21;;;;;;;5.47;4.05;;;10.60;66.50;;;;;;5101815;28;20138;-65
2020/12/10 01:39:47;;;;;;;4.97;3.38;;;10.60;66.50;;;;;;5101800;28;20021;-67
2020/12/10 01:42:14;;;;;;;4.07;3.10;;;10.60;66.50;;;;;;5101710;28;20031;-67
2020/12/10 01:44:39;;;;;;;5.07;3.85;;;10.60;66.50;;;;;;5101707;28;20020;-67
2020/12/10 01:47:06;;;;;;;4.63;3.42;;;10.60;66.50;;;;;;5103948;28;20012;-67
2020/12/10 01:49:35;;;;;;;4.43;3.65;;;10.60;66.60;;;;;;5105365;28;20031;-66
2020/12/10 01:52:02;;;;;;;3.92;3.40;;;10.60;66.70;;;;;;5105209;28;20016;-66
2020/12/10 01:54:28;;;;;;;5.63;4.28;;;10.60;66.60;;;;;;5105261;28;20042;-66
2020/12/10 01:56:55;;;;;;;3.75;3.40;;;10.60;66.50;;;;;;5105218;28;20320;-66
2020/12/10 01:59:22;;;;;;;5.72;3.55;;;10.60;66.60;;;;;;5105195;28;20042;-66
2020/12/10 02:01:48;;;;;;;5.20;3.92;;;10.60;66.50;;;;;;5105140;28;20034;-66
2020/12/10 02:04:34;;;;;;;5.55;3.83;;;10.60;66.70;;;;;;5105083;28;20020;-67
2020/12/10 02:07:01;;;;;;;4.15;3.38;;;10.60;66.70;;;;;;5105093;28;20083;-67
2020/12/10 02:09:27;;;;;;;4.40;3.40;;;10.60;66.60;;;;;;5104805;28;20215;-66
2020/12/10 02:11:53;;;;;;;4.82;3.80;;;10.60;66.50;;;;;;5104849;28;20055;-65
2020/12/10 02:14:20;;;;;;;4.10;3.40;;;10.60;66.50;;;;;;5104931;28;20027;-66
2020/12/10 02:16:46;;;;;;;4.80;3.50;;;10.70;66.60;;;;;;5104870;28;20012;-67
2020/12/10 02:19:12;;;;;;;5.00;3.67;;;10.70;66.70;;;;;;5104773;28;20034;-67
2020/12/10 02:21:38;;;;;;;5.00;3.58;;;10.60;66.70;;;;;;5104748;28;20088;-66
2020/12/10 02:24:03;;;;;;;5.40;3.70;;;10.60;66.70;;;;;;5104692;28;20020;-66
2020/12/10 02:26:29;;;;;;;3.47;3.03;;;10.60;66.70;;;;;;5104537;28;20019;-67
2020/12/10 02:29:00;;;;;;;4.45;3.40;;;10.60;67.40;;;;;;5104403;28;20080;-66
2020/12/10 02:31:30;;;;;;;5.10;3.53;;;10.60;66.60;;;;;;5103271;28;20296;-67
2020/12/10 02:34:04;;;;;;;4.03;3.60;;;10.70;66.50;;;;;;5104343;28;20246;-66
2020/12/10 02:36:32;;;;;;;4.53;3.47;;;10.70;66.40;;;;;;5104394;28;20016;-67
2020/12/10 02:38:58;;;;;;;3.95;3.38;;;10.70;66.50;;;;;;5104101;28;20028;-67
2020/12/10 02:41:24;;;;;;;6.45;4.07;;;10.70;66.50;;;;;;5104252;28;20304;-66
2020/12/10 02:43:50;;;;;;;4.40;3.35;;;10.70;66.60;;;;;;5104132;28;20031;-67
2020/12/10 02:46:16;;;;;;;4.15;3.45;;;10.70;66.60;;;;;;5104011;28;20076;-67
2020/12/10 02:48:42;;;;;;;3.92;3.50;;;10.70;66.60;;;;;;5104127;28;20220;-67
2020/12/10 02:51:08;;;;;;;4.97;3.70;;;10.60;66.50;;;;;;5104210;28;20044;-66
2020/12/10 02:53:35;;;;;;;4.20;3.33;;;10.60;66.50;;;;;;5103918;28;20312;-66
2020/12/10 02:56:01;;;;;;;5.05;3.60;;;10.60;66.40;;;;;;5103830;28;20019;-66
2020/12/10 02:58:27;;;;;;;4.38;3.55;;;10.60;66.50;;;;;;5102763;28;20059;-65
2020/12/10 03:00:53;;;;;;;4.68;3.45;;;10.70;66.70;;;;;;5103847;28;20024;-66
2020/12/10 03:03:18;;;;;;;4.43;3.63;;;10.70;66.70;;;;;;5102418;28;20024;-65
2020/12/10 03:05:44;;;;;;;5.07;3.72;;;10.60;66.70;;;;;;5103900;28;20028;-67
2020/12/10 03:08:11;;;;;;;5.18;3.53;;;10.60;66.50;;;;;;5103561;28;20039;-65
2020/12/10 03:10:37;;;;;;;5.28;4.03;;;10.60;66.50;;;;;;5103494;28;20052;-67
2020/12/10 03:13:03;;;;;;;4.05;3.30;;;10.60;66.50;;;;;;5103690;28;20035;-66
2020/12/10 03:15:29;;;;;;;4.20;3.45;;;10.70;66.60;;;;;;5102388;28;20035;-67
2020/12/10 03:17:55;;;;;;;5.28;3.10;;;10.70;66.60;;;;;;5102995;28;20039;-66
2020/12/10 03:20:21;;;;;;;4.53;3.70;;;10.70;66.60;;;;;;5103472;28;20020;-66
2020/12/10 03:22:49;;;;;;;4.97;3.72;;;10.70;66.70;;;;;;5102182;28;20043;-66
2020/12/10 03:25:15;;;;;;;4.30;3.10;;;10.70;66.70;;;;;;5103374;28;20036;-66
2020/12/10 03:27:43;;;;;;;5.88;3.88;;;10.70;66.60;;;;;;5103535;28;20223;-67
2020/12/10 03:30:09;;;;;;;4.38;3.40;;;10.70;66.60;;;;;;5103311;28;20263;-66
2020/12/10 03:32:35;;;;;;;3.83;3.35;;;10.60;66.70;;;;;;5103161;28;20035;-66
2020/12/10 03:35:02;;;;;;;4.20;3.40;;;10.60;66.70;;;;;;5103244;28;20031;-66
2020/12/10 03:37:28;;;;;;;4.18;3.30;;;10.60;66.80;;;;;;5103177;28;20020;-67
2020/12/10 03:39:54;;;;;;;6.57;4.05;;;10.60;66.60;;;;;;5103092;28;20020;-66
2020/12/10 03:42:20;;;;;;;5.07;4.00;;;10.60;66.60;;;;;;5103182;28;20065;-67
2020/12/10 03:44:46;;;;;;;5.05;3.85;;;10.70;66.50;;;;;;5103171;28;20020;-67
2020/12/10 03:47:11;;;;;;;4.68;3.53;;;10.70;66.70;;;;;;5102054;28;20032;-66
2020/12/10 03:49:37;;;;;;;4.00;3.33;;;10.60;66.70;;;;;;5103074;28;20016;-67
2020/12/10 03:52:03;;;;;;;4.82;3.58;;;10.60;66.70;;;;;;5101779;28;20040;-66
2020/12/10 03:54:29;;;;;;;4.47;3.63;;;10.60;66.80;;;;;;5102967;28;20020;-65
2020/12/10 03:56:55;;;;;;;4.75;3.63;;;10.60;66.60;;;;;;5101755;28;20027;-66
2020/12/10 03:59:22;;;;;;;4.05;3.20;;;10.60;66.60;;;;;;5102887;28;20016;-64
2020/12/10 04:01:48;;;;;;;5.13;3.67;;;10.60;66.60;;;;;;5102896;28;20065;-65
2020/12/10 04:04:13;;;;;;;5.43;3.70;;;10.70;66.80;;;;;;5102847;28;20091;-66
2020/12/10 04:06:43;;;;;;;3.67;3.05;;;10.60;66.70;;;;;;5102822;28;20081;-67
2020/12/10 04:09:12;;;;;;;4.90;3.72;;;10.60;66.70;;;;;;5102550;28;20016;-67
2020/12/10 04:11:42;;;;;;;4.47;3.53;;;10.60;66.80;;;;;;5102282;28;20056;-66
2020/12/10 04:14:08;;;;;;;4.93;3.58;;;10.60;66.70;;;;;;5102708;28;20521;-66
2020/12/10 04:16:34;;;;;;;4.38;3.22;;;10.60;66.60;;;;;;5102621;28;20016;-66
2020/12/10 04:19:00;;;;;;;4.10;3.40;;;10.60;66.50;;;;;;5102624;28;20023;-67
2020/12/10 04:21:25;;;;;;;4.65;3.45;;;10.70;66.60;;;;;;5102433;28;20059;-67
2020/12/10 04:23:51;;;;;;;4.63;3.47;;;10.70;66.60;;;;;;5102516;28;20016;-66
2020/12/10 04:26:17;;;;;;;4.93;3.53;;;10.70;66.60;;;;;;5102470;28;20331;-67
2020/12/10 04:28:43;;;;;;;3.95;3.20;;;10.70;66.60;;;;;;5102401;28;20024;-65
2020/12/10 04:31:10;;;;;;;4.55;3.28;;;10.70;66.70;;;;;;5102337;28;20020;-67
2020/12/10 04:33:37;;;;;;;5.10;3.60;;;10.70;66.60;;;;;;5102316;28;20373;-68
2020/12/10 04:36:04;;;;;;;4.95;3.72;;;10.60;66.80;;;;;;5102244;28;20328;-64
2020/12/10 04:38:31;;;;;;;5.63;4.45;;;10.70;66.80;;;;;;5102264;28;20016;-67
2020/12/10 04:41:04;;;;;;;5.18;3.45;;;10.60;66.80;;;;;;5102162;28;20012;-66
2020/12/10 04:43:30;;;;;;;5.18;3.35;;;10.60;66.80;;;;;;5102151;28;20035;-65
2020/12/10 04:46:00;;;;;;;4.00;3.47;;;10.60;66.80;;;;;;5102163;28;20028;-66
2020/12/10 04:48:31;;;;;;;5.18;3.42;;;10.60;66.70;;;;;;5102179;28;20343;-66
2020/12/10 04:51:01;;;;;;;4.80;3.63;;;10.70;66.80;;;;;;5102086;28;20384;-67
2020/12/10 04:53:28;;;;;;;5.38;4.18;;;10.60;66.70;;;;;;5102001;28;20020;-67
2020/12/10 04:55:55;;;;;;;4.15;3.70;;;10.60;66.70;;;;;;5102136;28;20023;-66
2020/12/10 04:58:21;;;;;;;4.07;3.42;;;10.70;66.70;;;;;;5102090;28;20012;-66
2020/12/10 05:00:48;;;;;;;4.80;3.92;;;10.70;66.80;;;;;;5101991;28;20016;-66
2020/12/10 05:03:16;;;;;;;5.00;3.47;;;10.60;66.70;;;;;;5102335;28;20142;-66
2020/12/10 05:05:41;;;;;;;4.35;3.47;;;10.60;66.70;;;;;;5102073;28;20043;-66
2020/12/10 05:08:07;;;;;;;3.80;3.10;;;10.70;66.80;;;;;;5102087;28;20212;-67
2020/12/10 05:10:43;;;;;;;4.00;3.30;;;10.70;66.80;;;;;;5101795;28;20059;-65
2020/12/10 05:13:14;;;;;;;3.95;3.45;;;10.60;66.80;;;;;;5102123;28;20028;-66
2020/12/10 05:15:41;;;;;;;4.35;3.60;;;10.60;66.80;;;;;;5102028;28;20015;-65
2020/12/10 05:18:14;;;;;;;5.28;3.55;;;10.60;66.80;;;;;;5100874;28;20031;-65
2020/12/10 05:20:49;;;;;;;5.25;3.40;;;10.60;66.80;;;;;;5102083;28;20405;-66
2020/12/10 05:23:37;;;;;;;5.85;3.50;;;10.60;66.70;;;;;;5105932;28;20024;-66
2020/12/10 05:26:04;;;;;;;;;;;10.70;66.50;;;;;;5106344;28;20043;-66
2020/12/10 05:28:45;;;;;;;4.93;3.78;;;10.70;66.70;;;;;;5105820;28;19921;-65
2020/12/10 05:31:15;;;;;;;4.13;3.35;;;10.70;66.70;;;;;;5105804;28;20076;-66
2020/12/10 05:33:55;;;;;;;4.13;2.80;;;10.70;66.60;;;;;;5105501;28;20024;-66
2020/12/10 05:36:22;;;;;;;3.70;3.20;;;10.70;66.70;;;;;;5105632;28;20106;-66
2020/12/10 05:39:08;;;;;;;3.78;3.28;;;10.70;66.70;;;;;;5104404;28;20092;-66
2020/12/10 05:41:43;;;;;;;6.53;3.33;;;10.70;66.70;;;;;;5105584;28;20016;-66
2020/12/10 05:44:26;;;;;;;4.70;3.50;;;10.70;66.70;;;;;;5104399;28;20037;-65
2020/12/10 05:47:05;;;;;;;3.63;3.20;;;10.70;66.70;;;;;;5105704;28;20030;-66
2020/12/10 05:49:31;;;;;;;5.18;3.42;;;10.70;66.80;;;;;;5105487;28;20016;-67
2020/12/10 05:52:04;;;;;;;5.25;3.30;;;10.70;66.90;;;;;;5105271;28;20091;-66
2020/12/10 05:54:33;;;;;;;3.63;2.78;;;10.60;66.80;;;;;;5105315;28;20327;-67
2020/12/10 05:57:05;;;;;;;3.28;2.90;;;10.60;66.70;;;;;;5105563;28;20020;-67
2020/12/10 05:59:32;;;;;;;3.88;3.20;;;10.70;66.70;;;;;;5105283;28;20083;-67
2020/12/10 06:02:02;;;;;;;3.40;3.10;;;10.70;66.80;;;;;;5104097;28;20051;-68
2020/12/10 06:04:28;;;;;;;4.22;3.28;;;10.70;66.80;;;;;;5103919;28;20024;-66
2020/12/10 06:06:57;;;;;;;4.90;3.25;;;10.70;66.80;;;;;;5103881;28;20102;-66
2020/12/10 06:09:24;;;;;;;4.47;3.40;;;10.70;66.80;;;;;;5104858;28;20031;-64
2020/12/10 06:12:03;;;;;;;4.30;3.38;;;10.70;66.80;;;;;;5104791;28;20024;-66
2020/12/10 06:14:29;;;;;;;;;;;10.70;66.80;;;;;;5105448;28;20201;-67
2020/12/10 06:17:09;;;;;;;3.83;3.25;;;10.70;66.80;;;;;;5104859;28;19975;-66
2020/12/10 06:19:36;;;;;;;4.50;3.50;;;10.70;66.80;;;;;;5103641;28;20015;-66
2020/12/10 06:22:22;;;;;;;4.55;3.17;;;10.70;66.90;;;;;;5104778;28;20047;-67
2020/12/10 06:24:48;;;;;;;3.83;3.13;;;10.70;66.80;;;;;;5104476;28;20063;-67
2020/12/10 06:27:22;;;;;;;3.65;2.95;;;10.60;66.80;;;;;;5103465;28;20035;-66
2020/12/10 06:29:48;;;;;;;4.40;3.33;;;10.60;66.80;;;;;;5104669;28;20016;-68
2020/12/10 06:32:17;;;;;;;3.42;2.75;;;10.70;66.60;;;;;;5104406;28;20077;-65
2020/12/10 06:34:52;;;;;;;3.67;3.08;;;10.70;66.70;;;;;;5104586;28;20024;-65
2020/12/10 06:37:22;;;;;;;4.00;3.03;;;10.70;66.80;;;;;;5104415;28;20008;-67
2020/12/10 06:39:50;;;;;;;3.85;3.00;;;10.70;66.80;;;;;;5104491;28;20012;-66
2020/12/10 06:42:16;;;;;;;5.13;3.10;;;10.70;66.90;;;;;;5104329;28;20075;-67
2020/12/10 06:44:42;;;;;;;4.82;3.35;;;10.70;66.80;;;;;;5104350;28;20346;-67
2020/12/10 06:47:08;;;;;;;4.25;3.45;;;10.70;67.40;;;;;;5104323;28;20024;-66
2020/12/10 06:49:37;;;;;;;4.47;3.28;;;10.70;66.60;;;;;;5104231;28;20020;-65
2020/12/10 06:52:11;;;;;;;3.28;2.92;;;10.70;66.70;;;;;;5103079;28;20340;-64
2020/12/10 06:55:10;;;;;;;4.30;3.25;;;10.70;66.80;;;;;;5104168;28;20023;-67
2020/12/10 06:57:58;;;;;;;3.70;3.05;;;10.70;66.80;;;;;;5104116;28;20358;-67
2020/12/10 07:00:34;;;;;;;;;;;10.70;66.80;;;;;;5104486;28;20069;-66
2020/12/10 07:03:10;;;;;;;3.63;3.08;;;10.70;66.70;;;;;;5104049;28;20128;-67
2020/12/10 07:05:36;;;;;;;4.05;3.33;;;10.70;66.80;;;;;;5103902;28;20019;-67
2020/12/10 07:08:10;;;;;;;4.07;3.17;;;10.70;66.60;;;;;;5103883;28;20043;-66
2020/12/10 07:10:41;;;;;;;3.38;2.72;;;10.70;66.60;;;;;;5103583;28;20112;-66
2020/12/10 07:13:07;;;;;;;4.65;3.22;;;10.70;66.70;;;;;;5102555;28;20036;-67
2020/12/10 07:15:33;;;;;;;3.75;3.05;;;10.70;66.60;;;;;;5103754;28;20039;-64
2020/12/10 07:18:02;;;;;;;4.60;2.97;;;10.70;66.60;;;;;;5103784;28;20016;-66
2020/12/10 07:20:28;;;;;;;5.38;3.05;;;10.70;66.60;;;;;;5102863;28;20034;-67
2020/12/10 07:22:55;;;;;;;2.90;2.60;;;10.80;66.70;;;;;;5103588;28;20083;-67
2020/12/10 07:25:21;;;;;;;3.88;2.80;;;10.70;66.70;;;;;;5103561;28;20204;-66
2020/12/10 07:27:47;;;;;;;3.53;2.88;;;10.70;66.50;;;;;;5103786;28;20015;-66
2020/12/10 07:30:14;;;;;;;3.42;3.03;;;10.70;66.70;;;;;;5103474;28;20054;-65
2020/12/10 07:32:40;;;;;;;5.75;2.90;;;10.70;66.70;;;;;;5103374;28;20035;-65
2020/12/10 07:35:07;;;;;;;3.30;2.92;;;10.70;66.60;;;;;;5103412;28;20133;-67
2020/12/10 07:37:33;;;;;;;3.00;2.70;;;10.70;66.70;;;;;;5103259;28;20216;-64
2020/12/10 07:40:14;;;;;;;3.20;2.75;;;10.70;66.70;;;;;;5103317;28;20259;-67
2020/12/10 07:42:40;;;;;;;4.03;2.92;;;10.70;66.70;;;;;;5103328;28;20062;-67
2020/12/10 07:45:28;;;;;;;2.78;2.53;;;10.70;66.70;;;;;;5102515;28;20024;-67
2020/12/10 07:47:55;;;;;;;4.13;2.90;;;10.70;66.60;;;;;;5102951;28;20331;-67
2020/12/10 07:50:23;;;;;;;4.00;2.60;;;10.70;66.70;;;;;;5103112;28;20032;-65
2020/12/10 07:52:51;;;;;;;3.35;2.90;;;10.70;66.70;;;;;;5103020;28;20361;-66
2020/12/10 07:55:20;;;;;;;3.40;3.10;;;10.70;66.50;;;;;;5103002;28;20020;-65
2020/12/10 07:57:58;;;;;;;3.22;2.65;;;10.70;66.50;;;;;;5101887;28;20035;-65
2020/12/10 08:00:30;;;;;;;4.57;3.22;;;10.70;66.50;;;;;;5102938;28;20016;-67
2020/12/10 08:03:07;;;;;;;5.13;3.08;;;10.70;66.50;;;;;;5102884;28;20016;-66
2020/12/10 08:05:35;;;;;;;4.32;2.67;;;10.80;66.60;;;;;;5102841;28;20043;-67
2020/12/10 08:08:10;;;;;;;2.97;2.60;;;10.70;66.50;;;;;;5102854;28;20027;-67
2020/12/10 08:10:36;;;;;;;3.05;2.67;;;10.70;66.60;;;;;;5102603;28;20044;-67
2020/12/10 08:13:10;;;;;;;4.40;2.92;;;10.70;66.70;;;;;;5102605;28;20244;-66
2020/12/10 08:15:37;;;;;;;3.45;2.85;;;10.70;66.70;;;;;;5102650;28;20016;-66
2020/12/10 08:18:12;;;;;;;4.03;3.20;;;10.70;66.50;;;;;;5102639;28;20016;-66
2020/12/10 08:20:49;;;;;;;4.47;3.25;;;10.70;66.40;;;;;;5101554;28;20031;-67
2020/12/10 08:23:17;;;;;;;3.90;3.05;;;10.80;66.40;;;;;;5102526;28;20030;-66
2020/12/10 08:25:45;;;;;;;4.00;3.10;;;10.80;66.40;;;;;;5101261;28;20049;-65
2020/12/10 08:28:12;;;;;;;3.03;2.42;;;10.80;66.40;;;;;;5102541;28;20043;-65
2020/12/10 08:30:55;;;;;;;2.80;2.53;;;10.80;67.00;;;;;;5102501;28;20055;-66
2020/12/10 08:33:21;;;;;;;3.65;2.83;;;10.80;66.50;;;;;;5102447;28;20023;-66
2020/12/10 08:35:49;;;;;;;4.70;3.40;;;10.70;66.50;;;;;;5102642;28;20225;-66
2020/12/10 08:38:15;;;;;;;4.82;3.70;;;10.70;66.50;;;;;;5102319;28;20016;-67
2020/12/10 08:40:41;;;;;;;5.38;3.80;;;10.80;66.40;;;;;;5102390;28;20015;-65
2020/12/10 08:43:15;;;;;;;4.05;3.20;;;10.80;66.50;;;;;;5102327;28;20204;-67
2020/12/10 08:45:45;;;;;;;4.95;3.63;;;10.70;66.60;;;;;;5102349;28;20043;-66
2020/12/10 08:48:29;;;;;;;4.28;3.38;;;10.70;66.60;;;;;;5102314;28;20027;-66
2020/12/10 08:50:58;;;;;;;4.40;2.90;;;10.70;66.60;;;;;;5102508;28;20020;-66
2020/12/10 08:53:25;;;;;;;4.05;2.78;;;10.70;66.60;;;;;;5102074;28;20020;-66
2020/12/10 08:55:56;;;;;;;3.70;2.95;;;10.70;66.60;;;;;;5101479;28;20020;-66
2020/12/10 08:58:28;;;;;;;3.97;2.67;;;10.70;66.50;;;;;;5106757;28;20024;-66
2020/12/10 09:00:57;;;;;;;3.63;2.72;;;10.70;66.50;;;;;;5106464;28;20270;-65
2020/12/10 09:03:24;;;;;;;3.88;2.97;;;10.80;66.50;;;;;;5105246;28;20197;-64
2020/12/10 09:05:50;;;;;;;2.90;2.55;;;10.70;66.40;;;;;;5106350;28;20046;-68
2020/12/10 09:08:16;;;;;;;3.05;2.72;;;10.70;66.40;;;;;;5106235;28;20042;-66
2020/12/10 09:10:42;;;;;;;3.78;3.13;;;10.80;66.40;;;;;;5106048;28;20271;-66
2020/12/10 09:13:09;;;;;;;4.15;2.85;;;10.70;66.50;;;;;;5106144;28;20509;-66
2020/12/10 09:15:35;;;;;;;3.63;2.58;;;10.70;66.50;;;;;;5105016;28;20020;-66
2020/12/10 09:18:01;;;;;;;3.78;3.10;;;10.70;66.50;;;;;;5106139;28;20087;-67
2020/12/10 09:20:26;;;;;;;3.45;3.03;;;10.70;66.60;;;;;;5106104;28;20015;-66
2020/12/10 09:22:52;;;;;;;6.72;3.00;;;10.70;66.50;;;;;;5106078;28;20020;-65
2020/12/10 09:25:19;;;;;;;3.35;2.80;;;10.70;66.50;;;;;;5106003;28;20223;-65
2020/12/10 09:27:45;;;;;;;2.92;2.63;;;10.70;66.90;;;;;;5104861;28;20020;-67
2020/12/10 09:30:12;;;;;;;3.53;2.83;;;10.70;66.40;;;;;;5105907;28;20207;-66
2020/12/10 09:32:41;;;;;;;3.55;3.15;;;10.70;66.30;;;;;;5105776;28;20023;-66
2020/12/10 09:35:12;;;;;;;3.38;2.78;;;10.80;66.40;;;;;;5104704;28;20098;-66
2020/12/10 09:37:40;;;;;;;3.40;2.80;;;10.80;66.30;;;;;;5105747;28;20070;-63
2020/12/10 09:40:08;;;;;;;4.25;3.15;;;10.80;66.30;;;;;;5104540;28;20024;-66
2020/12/10 09:43:00;;;;;;;4.37;3.13;;;10.70;66.30;;;;;;5105653;28;20050;-66
2020/12/10 09:45:25;;;;;;;3.65;2.97;;;10.70;66.40;;;;;;5104444;28;20023;-66
2020/12/10 09:47:51;;;;;;;3.78;3.08;;;10.70;66.40;;;;;;5105591;28;20016;-65
2020/12/10 09:50:25;;;;;;;3.45;3.15;;;10.70;66.50;;;;;;5105316;28;20032;-67
2020/12/10 09:53:03;;;;;;;2.97;2.65;;;10.70;66.40;;;;;;5104422;28;20032;-67
2020/12/10 09:58:33;;;;;;;3.90;2.75;;;10.70;66.40;;;;;;5105372;28;20278;-67
2020/12/10 10:00:59;;;;;;;3.17;2.75;;;10.70;66.20;;;;;;5105273;28;20027;-66
2020/12/10 10:03:24;;;;;;;3.55;3.22;;;10.70;66.30;;;;;;5105254;28;20087;-66
2020/12/10 10:05:55;;;;;;;2.92;2.45;;;10.70;66.30;;;;;;5105326;28;20106;-65
2020/12/10 10:08:22;;;;;;;4.18;3.30;;;10.70;66.20;;;;;;5104712;28;20022;-67
2020/12/10 10:10:52;;;;;;;2.95;2.65;;;10.70;66.10;;;;;;5104958;28;20103;-66
2020/12/10 10:13:18;;;;;;;4.45;2.60;;;10.80;66.10;;;;;;5105018;28;20032;-67
2020/12/10 10:15:45;;;;;;;4.82;3.03;;;10.70;66.20;;;;;;5105175;28;20020;-65
2020/12/10 10:18:13;;;;;;;3.17;2.70;;;10.70;66.20;;;;;;5105039;28;20008;-65
2020/12/10 10:20:42;;;;;;;3.03;2.72;;;10.70;66.10;;;;;;5105180;28;20020;-65
2020/12/10 10:23:09;;;;;;;2.80;2.53;;;10.70;66.20;;;;;;5104902;28;20027;-66
2020/12/10 10:25:54;;;;;;;3.45;2.78;;;10.70;66.30;;;;;;5104730;28;20032;-66
2020/12/10 10:28:20;;;;;;;2.45;2.22;;;10.70;66.30;;;;;;5104808;28;20019;-66
2020/12/10 10:30:50;;;;;;;4.85;2.67;;;10.70;66.30;;;;;;5104698;28;20073;-65
2020/12/10 10:33:22;;;;;;;2.97;2.65;;;10.70;66.30;;;;;;5103487;28;20220;-66
2020/12/10 10:35:48;;;;;;;4.15;3.40;;;10.70;66.30;;;;;;5104693;28;20007;-67
2020/12/10 10:38:14;;;;;;;4.47;3.22;;;10.80;66.30;;;;;;5104564;28;20231;-65
2020/12/10 10:40:40;;;;;;;4.20;2.70;;;10.70;66.10;;;;;;5104581;28;20031;-66
2020/12/10 10:43:06;;;;;;;2.88;2.47;;;10.70;66.10;;;;;;5104463;28;20075;-66
2020/12/10 10:45:32;;;;;;;3.53;3.03;;;10.70;66.00;;;;;;5104493;28;20242;-65
2020/12/10 10:47:58;;;;;;;3.17;2.88;;;10.70;66.00;;;;;;5103255;28;20114;-66
2020/12/10 10:50:24;;;;;;;3.50;3.13;;;10.70;65.90;;;;;;5104373;28;20327;-65
2020/12/10 10:53:13;;;;;;;3.33;2.80;;;10.70;66.00;;;;;;5104271;28;20031;-67
2020/12/10 10:55:38;;;;;;;;;;;10.70;66.00;;;;;;5104681;28;20062;-66
2020/12/10 10:58:04;;;;;;;3.00;2.70;;;10.70;66.00;;;;;;5104243;28;19904;-65
2020/12/10 11:00:30;;;;;;;3.00;2.67;;;10.70;66.10;;;;;;5104237;28;20043;-67
2020/12/10 11:02:56;;;;;;;3.90;3.20;;;10.70;66.10;;;;;;5102923;28;20087;-66
2020/12/10 11:05:25;;;;;;;3.55;2.83;;;10.70;66.10;;;;;;5104064;28;20020;-64
2020/12/10 11:07:54;;;;;;;3.60;2.92;;;10.70;66.20;;;;;;5104299;28;20015;-66
2020/12/10 11:10:36;;;;;;;3.50;3.15;;;10.70;66.10;;;;;;5103740;28;20243;-67
2020/12/10 11:13:02;;;;;;;3.97;2.75;;;10.70;66.10;;;;;;5103672;28;20040;-66
2020/12/10 11:15:28;;;;;;;3.40;3.10;;;10.70;66.00;;;;;;5103895;28;20051;-65
2020/12/10 11:18:02;;;;;;;3.85;2.95;;;10.70;66.00;;;;;;5103972;28;20211;-67
2020/12/10 11:20:28;;;;;;;3.55;2.92;;;10.70;65.90;;;;;;5103149;28;20235;-67
2020/12/10 11:22:54;;;;;;;3.10;2.80;;;10.70;65.80;;;;;;5102632;28;20042;-66
2020/12/10 11:25:20;;;;;;;3.10;2.80;;;10.80;65.80;;;;;;5102563;28;20212;-68
2020/12/10 11:27:45;;;;;;;4.93;3.53;;;10.70;65.90;;;;;;5102418;28;20055;-67
2020/12/10 11:30:11;;;;;;;3.67;3.08;;;10.70;65.90;;;;;;5103585;28;20027;-67
2020/12/10 11:32:37;;;;;;;3.65;3.22;;;10.70;66.00;;;;;;5103453;28;20031;-67
2020/12/10 11:35:03;;;;;;;3.38;3.08;;;10.70;66.10;;;;;;5103777;28;20471;-67
2020/12/10 11:37:31;;;;;;;4.63;2.97;;;10.70;66.30;;;;;;5103438;28;20090;-67
2020/12/10 11:40:17;;;;;;;4.30;3.40;;;10.60;66.10;;;;;;5103387;28;20020;-66
2020/12/10 11:42:43;;;;;;;4.43;3.38;;;10.60;66.10;;;;;;5103338;28;20042;-66
2020/12/10 11:45:08;;;;;;;5.53;3.67;;;10.70;66.00;;;;;;5102111;28;20023;-65
2020/12/10 11:47:34;;;;;;;3.90;3.30;;;10.70;66.00;;;;;;5103237;28;20027;-64
2020/12/10 11:50:00;;;;;;;4.22;3.63;;;10.70;66.00;;;;;;5103241;28;20023;-66
2020/12/10 11:52:28;;;;;;;4.32;3.20;;;10.70;66.10;;;;;;5101869;28;20023;-66
2020/12/10 11:54:53;;;;;;;5.20;3.97;;;10.70;65.90;;;;;;5103122;28;20332;-63
2020/12/10 11:57:19;;;;;;;5.00;3.47;;;10.70;65.90;;;;;;5103140;28;20024;-66
2020/12/10 11:59:45;;;;;;;5.18;3.97;;;10.60;65.90;;;;;;5101831;28;20016;-66
2020/12/10 12:02:11;;;;;;;4.68;3.72;;;10.60;65.90;;;;;;5103012;28;20068;-66
2020/12/10 12:04:37;;;;;;;4.75;3.97;;;10.70;65.90;;;;;;5102932;28;20016;-66
2020/12/10 12:07:04;;;;;;;6.22;4.65;;;10.70;65.70;;;;;;5102874;28;20035;-64
2020/12/10 12:09:30;;;;;;;5.25;3.92;;;10.70;65.70;;;;;;5102883;28;20062;-66
2020/12/10 12:12:15;;;;;;;5.32;4.28;;;10.70;65.80;;;;;;5102585;28;20040;-65
2020/12/10 12:14:41;;;;;;;4.53;3.38;;;10.70;65.70;;;;;;5102590;28;20044;-67
2020/12/10 12:17:07;;;;;;;4.90;3.70;;;10.70;65.70;;;;;;5101527;28;20058;-66
2020/12/10 12:19:32;;;;;;;5.35;3.90;;;10.70;65.70;;;;;;5102666;28;20073;-64
2020/12/10 12:22:03;;;;;;;4.90;3.95;;;10.70;65.90;;;;;;5102662;28;20024;-65
2020/12/10 12:24:49;;;;;;;4.03;3.05;;;10.70;65.70;;;;;;5102643;28;20208;-66
2020/12/10 12:27:15;;;;;;;4.88;3.53;;;10.70;65.70;;;;;;5102571;28;20008;-67
2020/12/10 12:29:40;;;;;;;4.25;3.55;;;10.70;65.70;;;;;;5102456;28;20027;-66
2020/12/10 12:32:08;;;;;;;5.22;3.70;;;10.70;65.70;;;;;;5102428;28;20024;-66
2020/12/10 12:34:35;;;;;;;4.88;4.15;;;10.60;65.70;;;;;;5102670;28;20016;-66
2020/12/10 12:37:01;;;;;;;3.90;3.50;;;10.60;65.80;;;;;;5102501;28;20203;-66
2020/12/10 12:39:26;;;;;;;5.35;4.25;;;10.70;66.10;;;;;;5102414;28;20023;-67
2020/12/10 12:42:14;;;;;;;7.13;3.88;;;10.60;66.10;;;;;;5102377;28;20016;-66
2020/12/10 12:45:22;;;;;;;5.85;3.97;;;10.60;66.00;;;;;;5102343;28;20023;-67
2020/12/10 12:47:48;;;;;;;5.22;4.03;;;10.60;65.90;;;;;;5103244;28;20417;-66
2020/12/10 12:50:17;;;;;;;4.80;3.80;;;10.60;66.00;;;;;;5102320;28;20024;-64
2020/12/10 12:53:02;;;;;;;5.15;4.10;;;10.70;65.90;;;;;;5100954;28;20043;-66
2020/12/10 12:55:28;;;;;;;4.13;3.63;;;10.60;66.00;;;;;;5102366;28;20024;-65
2020/12/10 12:57:54;;;;;;;4.72;3.97;;;10.70;65.90;;;;;;5102251;28;20059;-66
2020/12/10 13:00:20;;;;;;;4.68;3.85;;;10.70;65.90;;;;;;5102267;28;20310;-66